sensor_id;sensor_type;location;lat;lon;timestamp;temperature;humidity
578;DHT22;275;48.492;9.214;2023-05-17T00:00:27;11.10;41.00
578;DHT22;275;48.492;9.214;2023-05-17T00:02:54;11.20;40.40
578;DHT22;275;48.492;9.214;2023-05-17T00:05:21;11.10;40.20
578;DHT22;275;48.492;9.214;2023-05-17T00:07:50;11.40;39.70
578;DHT22;275;48.492;9.214;2023-05-17T00:10:18;11.20;40.20
578;DHT22;275;48.492;9.214;2023-05-17T00:12:48;11.20;40.30
578;DHT22;275;48.492;9.214;2023-05-17T00:15:14;11.30;39.70
578;DHT22;275;48.492;9.214;2023-05-17T00:17:41;11.40;39.20
578;DHT22;275;48.492;9.214;2023-05-17T00:20:08;11.80;38.10
578;DHT22;275;48.492;9.214;2023-05-17T00:22:35;11.80;37.40
578;DHT22;275;48.492;9.214;2023-05-17T00:25:03;11.90;37.10
578;DHT22;275;48.492;9.214;2023-05-17T00:27:31;11.80;37.10
578;DHT22;275;48.492;9.214;2023-05-17T00:30:01;11.50;38.00
578;DHT22;275;48.492;9.214;2023-05-17T00:32:28;11.50;37.60
578;DHT22;275;48.492;9.214;2023-05-17T00:34:55;11.30;38.30
578;DHT22;275;48.492;9.214;2023-05-17T00:37:22;11.50;37.80
578;DHT22;275;48.492;9.214;2023-05-17T00:39:48;11.70;36.90
578;DHT22;275;48.492;9.214;2023-05-17T00:42:15;11.80;36.00
578;DHT22;275;48.492;9.214;2023-05-17T00:44:44;12.00;35.00
578;DHT22;275;48.492;9.214;2023-05-17T00:47:10;12.10;34.10
578;DHT22;275;48.492;9.214;2023-05-17T00:49:37;12.10;34.40
578;DHT22;275;48.492;9.214;2023-05-17T00:52:06;12.00;34.60
578;DHT22;275;48.492;9.214;2023-05-17T00:54:33;12.00;35.60
578;DHT22;275;48.492;9.214;2023-05-17T00:57:00;12.20;34.90
578;DHT22;275;48.492;9.214;2023-05-17T00:59:28;12.10;34.80
578;DHT22;275;48.492;9.214;2023-05-17T01:01:57;12.30;34.90
578;DHT22;275;48.492;9.214;2023-05-17T01:04:24;12.40;35.40
578;DHT22;275;48.492;9.214;2023-05-17T01:06:51;12.30;35.60
578;DHT22;275;48.492;9.214;2023-05-17T01:09:20;11.90;36.30
578;DHT22;275;48.492;9.214;2023-05-17T01:11:55;11.80;36.70
578;DHT22;275;48.492;9.214;2023-05-17T01:14:37;11.60;37.20
578;DHT22;275;48.492;9.214;2023-05-17T01:17:12;11.40;38.00
578;DHT22;275;48.492;9.214;2023-05-17T01:20:08;10.80;39.60
578;DHT22;275;48.492;9.214;2023-05-17T01:22:43;10.90;39.60
578;DHT22;275;48.492;9.214;2023-05-17T01:25:27;11.10;39.10
578;DHT22;275;48.492;9.214;2023-05-17T01:28:01;10.90;39.50
578;DHT22;275;48.492;9.214;2023-05-17T01:30:29;10.90;39.90
578;DHT22;275;48.492;9.214;2023-05-17T01:32:57;11.10;39.60
578;DHT22;275;48.492;9.214;2023-05-17T01:35:24;10.90;40.10
578;DHT22;275;48.492;9.214;2023-05-17T01:37:51;10.70;40.90
578;DHT22;275;48.492;9.214;2023-05-17T01:40:18;10.70;41.00
578;DHT22;275;48.492;9.214;2023-05-17T01:42:48;10.90;40.40
578;DHT22;275;48.492;9.214;2023-05-17T01:45:22;10.80;40.30
578;DHT22;275;48.492;9.214;2023-05-17T01:47:57;11.10;39.40
578;DHT22;275;48.492;9.214;2023-05-17T01:50:28;11.20;39.20
578;DHT22;275;48.492;9.214;2023-05-17T01:53:01;10.70;40.40
578;DHT22;275;48.492;9.214;2023-05-17T01:55:33;10.60;40.90
578;DHT22;275;48.492;9.214;2023-05-17T01:58:03;10.40;40.90
578;DHT22;275;48.492;9.214;2023-05-17T02:00:33;10.40;41.00
578;DHT22;275;48.492;9.214;2023-05-17T02:03:00;10.30;41.70
578;DHT22;275;48.492;9.214;2023-05-17T02:05:27;10.30;41.50
578;DHT22;275;48.492;9.214;2023-05-17T02:07:54;10.30;41.50
578;DHT22;275;48.492;9.214;2023-05-17T02:10:21;10.00;42.10
578;DHT22;275;48.492;9.214;2023-05-17T02:12:48;9.90;43.20
578;DHT22;275;48.492;9.214;2023-05-17T02:15:15;9.70;43.90
578;DHT22;275;48.492;9.214;2023-05-17T02:17:43;9.90;43.60
578;DHT22;275;48.492;9.214;2023-05-17T02:20:10;9.70;43.70
578;DHT22;275;48.492;9.214;2023-05-17T02:22:37;10.00;41.80
578;DHT22;275;48.492;9.214;2023-05-17T02:25:05;10.20;41.20
578;DHT22;275;48.492;9.214;2023-05-17T02:27:32;10.30;40.70
578;DHT22;275;48.492;9.214;2023-05-17T02:29:59;10.40;40.20
578;DHT22;275;48.492;9.214;2023-05-17T02:32:27;10.50;40.00
578;DHT22;275;48.492;9.214;2023-05-17T02:34:55;10.00;41.30
578;DHT22;275;48.492;9.214;2023-05-17T02:37:22;9.90;42.60
578;DHT22;275;48.492;9.214;2023-05-17T02:39:48;9.80;42.90
578;DHT22;275;48.492;9.214;2023-05-17T02:42:16;9.50;43.80
578;DHT22;275;48.492;9.214;2023-05-17T02:44:42;9.30;44.30
578;DHT22;275;48.492;9.214;2023-05-17T02:47:09;9.30;44.10
578;DHT22;275;48.492;9.214;2023-05-17T02:49:36;9.30;44.40
578;DHT22;275;48.492;9.214;2023-05-17T02:52:05;9.00;45.00
578;DHT22;275;48.492;9.214;2023-05-17T02:54:31;8.80;45.80
578;DHT22;275;48.492;9.214;2023-05-17T02:56:58;9.00;45.00
578;DHT22;275;48.492;9.214;2023-05-17T02:59:25;9.00;45.00
578;DHT22;275;48.492;9.214;2023-05-17T03:01:52;9.40;43.70
578;DHT22;275;48.492;9.214;2023-05-17T03:04:19;9.70;42.40
578;DHT22;275;48.492;9.214;2023-05-17T03:06:46;9.90;41.90
578;DHT22;275;48.492;9.214;2023-05-17T03:09:14;9.50;42.70
578;DHT22;275;48.492;9.214;2023-05-17T03:11:41;9.60;42.50
578;DHT22;275;48.492;9.214;2023-05-17T03:14:07;9.60;42.50
578;DHT22;275;48.492;9.214;2023-05-17T03:16:34;9.70;42.10
578;DHT22;275;48.492;9.214;2023-05-17T03:19:01;9.40;43.10
578;DHT22;275;48.492;9.214;2023-05-17T03:21:28;9.00;43.70
578;DHT22;275;48.492;9.214;2023-05-17T03:23:56;9.00;44.00
578;DHT22;275;48.492;9.214;2023-05-17T03:26:24;9.00;44.10
578;DHT22;275;48.492;9.214;2023-05-17T03:28:51;9.00;43.80
578;DHT22;275;48.492;9.214;2023-05-17T03:31:18;9.00;43.80
578;DHT22;275;48.492;9.214;2023-05-17T03:33:45;8.90;44.10
578;DHT22;275;48.492;9.214;2023-05-17T03:36:12;9.10;43.60
578;DHT22;275;48.492;9.214;2023-05-17T03:38:39;9.30;42.90
578;DHT22;275;48.492;9.214;2023-05-17T03:41:06;9.20;42.90
578;DHT22;275;48.492;9.214;2023-05-17T03:43:34;9.30;42.50
578;DHT22;275;48.492;9.214;2023-05-17T03:46:01;9.30;42.60
578;DHT22;275;48.492;9.214;2023-05-17T03:48:28;9.40;42.00
578;DHT22;275;48.492;9.214;2023-05-17T03:50:55;9.60;41.30
578;DHT22;275;48.492;9.214;2023-05-17T03:53:22;9.20;42.50
578;DHT22;275;48.492;9.214;2023-05-17T03:55:49;9.30;42.20
578;DHT22;275;48.492;9.214;2023-05-17T03:58:16;9.00;42.90
578;DHT22;275;48.492;9.214;2023-05-17T04:00:44;8.90;43.80
578;DHT22;275;48.492;9.214;2023-05-17T04:03:11;9.30;42.00
578;DHT22;275;48.492;9.214;2023-05-17T04:05:38;9.40;41.80
578;DHT22;275;48.492;9.214;2023-05-17T04:08:05;9.50;41.10
578;DHT22;275;48.492;9.214;2023-05-17T04:10:32;9.40;41.50
578;DHT22;275;48.492;9.214;2023-05-17T04:12:59;9.40;41.30
578;DHT22;275;48.492;9.214;2023-05-17T04:15:26;9.50;41.20
578;DHT22;275;48.492;9.214;2023-05-17T04:17:54;9.80;40.40
578;DHT22;275;48.492;9.214;2023-05-17T04:20:21;9.40;41.10
578;DHT22;275;48.492;9.214;2023-05-17T04:22:48;9.20;42.00
578;DHT22;275;48.492;9.214;2023-05-17T04:25:15;9.50;41.20
578;DHT22;275;48.492;9.214;2023-05-17T04:27:43;9.50;41.30
578;DHT22;275;48.492;9.214;2023-05-17T04:30:11;10.10;39.10
578;DHT22;275;48.492;9.214;2023-05-17T04:32:38;10.30;38.50
578;DHT22;275;48.492;9.214;2023-05-17T04:35:06;10.40;38.50
578;DHT22;275;48.492;9.214;2023-05-17T04:37:33;10.40;37.60
578;DHT22;275;48.492;9.214;2023-05-17T04:40:05;10.90;37.20
578;DHT22;275;48.492;9.214;2023-05-17T04:42:32;11.30;35.90
578;DHT22;275;48.492;9.214;2023-05-17T04:44:59;11.50;35.40
578;DHT22;275;48.492;9.214;2023-05-17T04:47:26;11.80;34.70
578;DHT22;275;48.492;9.214;2023-05-17T04:49:53;12.00;34.40
578;DHT22;275;48.492;9.214;2023-05-17T04:52:22;12.50;33.10
578;DHT22;275;48.492;9.214;2023-05-17T04:54:49;12.70;32.90
578;DHT22;275;48.492;9.214;2023-05-17T04:57:16;13.00;32.10
578;DHT22;275;48.492;9.214;2023-05-17T04:59:44;13.50;31.40
578;DHT22;275;48.492;9.214;2023-05-17T05:02:10;13.60;30.90
578;DHT22;275;48.492;9.214;2023-05-17T05:04:37;13.90;30.50
578;DHT22;275;48.492;9.214;2023-05-17T05:07:04;14.40;29.80
578;DHT22;275;48.492;9.214;2023-05-17T05:09:32;14.20;29.60
578;DHT22;275;48.492;9.214;2023-05-17T05:11:59;14.50;29.50
578;DHT22;275;48.492;9.214;2023-05-17T05:14:26;14.80;28.80
578;DHT22;275;48.492;9.214;2023-05-17T05:16:53;15.20;28.20
578;DHT22;275;48.492;9.214;2023-05-17T05:19:20;16.00;27.40
578;DHT22;275;48.492;9.214;2023-05-17T05:21:48;16.80;26.30
578;DHT22;275;48.492;9.214;2023-05-17T05:24:15;17.00;26.10
578;DHT22;275;48.492;9.214;2023-05-17T05:26:43;17.30;25.40
578;DHT22;275;48.492;9.214;2023-05-17T05:29:10;17.20;25.70
578;DHT22;275;48.492;9.214;2023-05-17T05:31:37;17.40;25.30
578;DHT22;275;48.492;9.214;2023-05-17T05:34:04;16.90;25.80
578;DHT22;275;48.492;9.214;2023-05-17T05:36:31;17.20;25.70
578;DHT22;275;48.492;9.214;2023-05-17T05:38:58;16.90;25.40
578;DHT22;275;48.492;9.214;2023-05-17T05:41:25;16.60;25.90
578;DHT22;275;48.492;9.214;2023-05-17T05:43:54;15.90;27.20
578;DHT22;275;48.492;9.214;2023-05-17T05:46:20;16.70;26.70
578;DHT22;275;48.492;9.214;2023-05-17T05:48:47;16.80;26.40
578;DHT22;275;48.492;9.214;2023-05-17T05:51:14;17.40;25.80
578;DHT22;275;48.492;9.214;2023-05-17T05:53:41;18.10;24.50
578;DHT22;275;48.492;9.214;2023-05-17T05:56:08;18.30;24.50
578;DHT22;275;48.492;9.214;2023-05-17T05:58:35;18.70;23.90
578;DHT22;275;48.492;9.214;2023-05-17T06:01:03;18.80;22.80
578;DHT22;275;48.492;9.214;2023-05-17T06:03:31;17.40;23.90
578;DHT22;275;48.492;9.214;2023-05-17T06:05:58;16.10;25.10
578;DHT22;275;48.492;9.214;2023-05-17T06:08:24;15.60;25.80
578;DHT22;275;48.492;9.214;2023-05-17T06:10:53;14.80;27.60
578;DHT22;275;48.492;9.214;2023-05-17T06:13:19;14.50;27.50
578;DHT22;275;48.492;9.214;2023-05-17T06:15:46;14.40;27.90
578;DHT22;275;48.492;9.214;2023-05-17T06:18:14;14.00;28.40
578;DHT22;275;48.492;9.214;2023-05-17T06:20:41;13.40;29.30
578;DHT22;275;48.492;9.214;2023-05-17T06:23:08;12.90;29.80
578;DHT22;275;48.492;9.214;2023-05-17T06:25:35;13.00;29.90
578;DHT22;275;48.492;9.214;2023-05-17T06:28:02;12.60;30.40
578;DHT22;275;48.492;9.214;2023-05-17T06:30:29;11.90;32.20
578;DHT22;275;48.492;9.214;2023-05-17T06:32:56;12.10;31.50
578;DHT22;275;48.492;9.214;2023-05-17T06:35:24;12.50;30.50
578;DHT22;275;48.492;9.214;2023-05-17T06:37:51;12.00;31.40
578;DHT22;275;48.492;9.214;2023-05-17T06:40:18;12.00;31.40
578;DHT22;275;48.492;9.214;2023-05-17T06:42:45;12.50;30.70
578;DHT22;275;48.492;9.214;2023-05-17T06:45:11;11.90;32.00
578;DHT22;275;48.492;9.214;2023-05-17T06:47:38;12.60;34.20
578;DHT22;275;48.492;9.214;2023-05-17T06:50:06;12.70;31.70
578;DHT22;275;48.492;9.214;2023-05-17T06:52:35;12.70;31.60
578;DHT22;275;48.492;9.214;2023-05-17T06:55:02;12.90;30.40
578;DHT22;275;48.492;9.214;2023-05-17T06:57:29;13.10;30.50
578;DHT22;275;48.492;9.214;2023-05-17T06:59:56;12.90;31.20
578;DHT22;275;48.492;9.214;2023-05-17T07:02:23;12.30;32.50
578;DHT22;275;48.492;9.214;2023-05-17T07:04:49;12.50;32.20
578;DHT22;275;48.492;9.214;2023-05-17T07:07:16;12.50;32.00
578;DHT22;275;48.492;9.214;2023-05-17T07:09:44;12.30;32.00
578;DHT22;275;48.492;9.214;2023-05-17T07:12:11;13.00;31.50
578;DHT22;275;48.492;9.214;2023-05-17T07:14:38;14.90;28.30
578;DHT22;275;48.492;9.214;2023-05-17T07:17:05;16.70;26.30
578;DHT22;275;48.492;9.214;2023-05-17T07:19:32;19.10;23.10
578;DHT22;275;48.492;9.214;2023-05-17T07:21:58;18.80;23.00
578;DHT22;275;48.492;9.214;2023-05-17T07:24:25;19.30;22.10
578;DHT22;275;48.492;9.214;2023-05-17T07:26:54;17.90;24.70
578;DHT22;275;48.492;9.214;2023-05-17T07:29:20;18.20;23.40
578;DHT22;275;48.492;9.214;2023-05-17T07:31:47;17.60;23.80
578;DHT22;275;48.492;9.214;2023-05-17T07:34:14;18.80;22.40
578;DHT22;275;48.492;9.214;2023-05-17T07:36:41;18.00;23.40
578;DHT22;275;48.492;9.214;2023-05-17T07:39:08;17.10;24.30
578;DHT22;275;48.492;9.214;2023-05-17T07:41:35;16.50;25.00
578;DHT22;275;48.492;9.214;2023-05-17T07:44:03;18.70;23.10
578;DHT22;275;48.492;9.214;2023-05-17T07:46:30;18.90;23.70
578;DHT22;275;48.492;9.214;2023-05-17T07:48:57;20.40;21.00
578;DHT22;275;48.492;9.214;2023-05-17T07:51:23;20.40;20.80
578;DHT22;275;48.492;9.214;2023-05-17T07:53:50;20.80;19.60
578;DHT22;275;48.492;9.214;2023-05-17T07:56:17;18.90;21.60
578;DHT22;275;48.492;9.214;2023-05-17T07:58:44;18.10;22.60
578;DHT22;275;48.492;9.214;2023-05-17T08:01:12;18.30;22.20
578;DHT22;275;48.492;9.214;2023-05-17T08:03:39;18.10;23.00
578;DHT22;275;48.492;9.214;2023-05-17T08:06:12;17.40;23.80
578;DHT22;275;48.492;9.214;2023-05-17T08:08:39;19.00;22.40
578;DHT22;275;48.492;9.214;2023-05-17T08:11:06;20.30;20.50
578;DHT22;275;48.492;9.214;2023-05-17T08:13:33;19.60;21.60
578;DHT22;275;48.492;9.214;2023-05-17T08:15:59;19.20;21.10
578;DHT22;275;48.492;9.214;2023-05-17T08:18:29;17.60;22.20
578;DHT22;275;48.492;9.214;2023-05-17T08:20:56;18.70;21.90
578;DHT22;275;48.492;9.214;2023-05-17T08:23:23;19.50;20.20
578;DHT22;275;48.492;9.214;2023-05-17T08:25:49;20.20;19.30
578;DHT22;275;48.492;9.214;2023-05-17T08:28:17;20.10;19.70
578;DHT22;275;48.492;9.214;2023-05-17T08:30:44;21.50;18.70
578;DHT22;275;48.492;9.214;2023-05-17T08:33:11;23.40;16.80
578;DHT22;275;48.492;9.214;2023-05-17T08:35:39;24.00;15.80
578;DHT22;275;48.492;9.214;2023-05-17T08:38:06;24.00;15.50
578;DHT22;275;48.492;9.214;2023-05-17T08:40:33;23.70;16.40
578;DHT22;275;48.492;9.214;2023-05-17T08:43:01;22.90;16.50
578;DHT22;275;48.492;9.214;2023-05-17T08:45:30;21.10;17.90
578;DHT22;275;48.492;9.214;2023-05-17T08:47:57;18.40;20.20
578;DHT22;275;48.492;9.214;2023-05-17T08:50:27;19.10;20.20
578;DHT22;275;48.492;9.214;2023-05-17T08:52:56;20.20;19.70
578;DHT22;275;48.492;9.214;2023-05-17T08:55:25;19.00;21.10
578;DHT22;275;48.492;9.214;2023-05-17T08:57:54;18.00;22.10
578;DHT22;275;48.492;9.214;2023-05-17T09:00:23;16.90;23.90
578;DHT22;275;48.492;9.214;2023-05-17T09:02:50;17.00;23.90
578;DHT22;275;48.492;9.214;2023-05-17T09:05:17;17.00;24.80
578;DHT22;275;48.492;9.214;2023-05-17T09:07:46;17.80;23.30
578;DHT22;275;48.492;9.214;2023-05-17T09:10:15;18.20;22.60
578;DHT22;275;48.492;9.214;2023-05-17T09:12:43;19.00;21.70
578;DHT22;275;48.492;9.214;2023-05-17T09:15:14;19.60;20.20
578;DHT22;275;48.492;9.214;2023-05-17T09:17:42;16.60;23.70
578;DHT22;275;48.492;9.214;2023-05-17T09:20:09;17.20;23.40
578;DHT22;275;48.492;9.214;2023-05-17T09:22:36;16.00;24.40
578;DHT22;275;48.492;9.214;2023-05-17T09:25:04;15.90;26.00
578;DHT22;275;48.492;9.214;2023-05-17T09:27:32;17.70;23.70
578;DHT22;275;48.492;9.214;2023-05-17T09:29:59;17.00;24.30
578;DHT22;275;48.492;9.214;2023-05-17T09:32:26;17.50;24.90
578;DHT22;275;48.492;9.214;2023-05-17T09:34:54;21.30;20.10
578;DHT22;275;48.492;9.214;2023-05-17T09:37:22;22.60;17.90
578;DHT22;275;48.492;9.214;2023-05-17T09:39:50;21.60;19.30
578;DHT22;275;48.492;9.214;2023-05-17T09:42:17;21.90;18.50
578;DHT22;275;48.492;9.214;2023-05-17T09:44:49;20.70;19.30
578;DHT22;275;48.492;9.214;2023-05-17T09:47:25;18.30;22.60
578;DHT22;275;48.492;9.214;2023-05-17T09:49:54;17.80;22.70
578;DHT22;275;48.492;9.214;2023-05-17T09:52:23;18.80;21.70
578;DHT22;275;48.492;9.214;2023-05-17T09:54:54;20.00;21.20
578;DHT22;275;48.492;9.214;2023-05-17T09:57:22;21.30;19.30
578;DHT22;275;48.492;9.214;2023-05-17T09:59:54;21.80;18.90
578;DHT22;275;48.492;9.214;2023-05-17T10:02:25;23.20;17.90
578;DHT22;275;48.492;9.214;2023-05-17T10:04:55;23.30;17.40
578;DHT22;275;48.492;9.214;2023-05-17T10:07:24;21.40;19.20
578;DHT22;275;48.492;9.214;2023-05-17T10:09:53;18.90;21.60
578;DHT22;275;48.492;9.214;2023-05-17T10:12:21;18.10;22.20
578;DHT22;275;48.492;9.214;2023-05-17T10:14:51;18.40;22.40
578;DHT22;275;48.492;9.214;2023-05-17T10:17:21;20.70;19.70
578;DHT22;275;48.492;9.214;2023-05-17T10:19:49;22.00;18.00
578;DHT22;275;48.492;9.214;2023-05-17T10:22:17;19.60;18.60
578;DHT22;275;48.492;9.214;2023-05-17T10:24:44;18.70;19.80
578;DHT22;275;48.492;9.214;2023-05-17T10:27:12;18.50;21.00
578;DHT22;275;48.492;9.214;2023-05-17T10:29:39;21.40;18.00
578;DHT22;275;48.492;9.214;2023-05-17T10:32:08;22.50;16.90
578;DHT22;275;48.492;9.214;2023-05-17T10:34:36;20.80;17.70
578;DHT22;275;48.492;9.214;2023-05-17T10:37:04;17.80;21.40
578;DHT22;275;48.492;9.214;2023-05-17T10:39:32;18.10;21.40
578;DHT22;275;48.492;9.214;2023-05-17T10:42:06;16.30;24.00
578;DHT22;275;48.492;9.214;2023-05-17T10:44:33;15.50;25.50
578;DHT22;275;48.492;9.214;2023-05-17T10:47:03;16.20;24.20
578;DHT22;275;48.492;9.214;2023-05-17T10:49:32;16.30;23.40
578;DHT22;275;48.492;9.214;2023-05-17T10:52:11;15.80;23.90
578;DHT22;275;48.492;9.214;2023-05-17T10:54:40;15.80;24.30
578;DHT22;275;48.492;9.214;2023-05-17T10:57:07;16.60;23.80
578;DHT22;275;48.492;9.214;2023-05-17T10:59:55;15.80;25.30
578;DHT22;275;48.492;9.214;2023-05-17T11:02:23;16.20;25.00
578;DHT22;275;48.492;9.214;2023-05-17T11:04:51;16.90;23.80
578;DHT22;275;48.492;9.214;2023-05-17T11:07:25;16.10;24.60
578;DHT22;275;48.492;9.214;2023-05-17T11:10:00;15.70;24.80
578;DHT22;275;48.492;9.214;2023-05-17T11:12:33;17.10;23.30
578;DHT22;275;48.492;9.214;2023-05-17T11:15:03;18.50;21.20
578;DHT22;275;48.492;9.214;2023-05-17T11:17:35;18.60;21.00
578;DHT22;275;48.492;9.214;2023-05-17T11:20:06;18.40;21.50
578;DHT22;275;48.492;9.214;2023-05-17T11:22:37;17.50;23.00
578;DHT22;275;48.492;9.214;2023-05-17T11:25:09;16.90;23.50
578;DHT22;275;48.492;9.214;2023-05-17T11:27:38;17.20;23.30
578;DHT22;275;48.492;9.214;2023-05-17T11:30:09;17.40;22.40
578;DHT22;275;48.492;9.214;2023-05-17T11:32:36;17.10;22.20
578;DHT22;275;48.492;9.214;2023-05-17T11:35:05;17.30;22.50
578;DHT22;275;48.492;9.214;2023-05-17T11:37:32;17.00;22.80
578;DHT22;275;48.492;9.214;2023-05-17T11:40:03;16.90;23.50
578;DHT22;275;48.492;9.214;2023-05-17T11:42:31;16.70;23.30
578;DHT22;275;48.492;9.214;2023-05-17T11:45:00;16.60;23.70
578;DHT22;275;48.492;9.214;2023-05-17T11:47:27;17.30;23.20
578;DHT22;275;48.492;9.214;2023-05-17T11:49:55;16.70;23.10
578;DHT22;275;48.492;9.214;2023-05-17T11:52:27;15.90;23.30
578;DHT22;275;48.492;9.214;2023-05-17T11:54:55;16.40;22.70
578;DHT22;275;48.492;9.214;2023-05-17T11:57:28;15.90;24.00
578;DHT22;275;48.492;9.214;2023-05-17T11:59:59;15.50;24.20
578;DHT22;275;48.492;9.214;2023-05-17T12:02:27;15.20;24.40
578;DHT22;275;48.492;9.214;2023-05-17T12:04:54;16.00;23.00
578;DHT22;275;48.492;9.214;2023-05-17T12:07:20;16.60;22.60
578;DHT22;275;48.492;9.214;2023-05-17T12:09:49;17.70;20.90
578;DHT22;275;48.492;9.214;2023-05-17T12:12:17;17.80;20.90
578;DHT22;275;48.492;9.214;2023-05-17T12:14:46;17.00;22.20
578;DHT22;275;48.492;9.214;2023-05-17T12:17:20;16.00;23.90
578;DHT22;275;48.492;9.214;2023-05-17T12:19:51;16.00;23.70
578;DHT22;275;48.492;9.214;2023-05-17T12:22:18;16.90;21.80
578;DHT22;275;48.492;9.214;2023-05-17T12:24:45;18.30;20.70
578;DHT22;275;48.492;9.214;2023-05-17T12:27:13;18.00;20.20
578;DHT22;275;48.492;9.214;2023-05-17T12:29:40;17.50;21.60
578;DHT22;275;48.492;9.214;2023-05-17T12:32:07;17.30;21.70
578;DHT22;275;48.492;9.214;2023-05-17T12:34:35;16.10;23.40
578;DHT22;275;48.492;9.214;2023-05-17T12:37:02;15.70;23.70
578;DHT22;275;48.492;9.214;2023-05-17T12:39:31;15.40;24.40
578;DHT22;275;48.492;9.214;2023-05-17T12:41:58;16.00;23.90
578;DHT22;275;48.492;9.214;2023-05-17T12:44:27;16.60;23.00
578;DHT22;275;48.492;9.214;2023-05-17T12:46:54;16.20;23.30
578;DHT22;275;48.492;9.214;2023-05-17T12:49:22;16.50;23.10
578;DHT22;275;48.492;9.214;2023-05-17T12:51:49;17.40;22.00
578;DHT22;275;48.492;9.214;2023-05-17T12:54:25;17.20;21.90
578;DHT22;275;48.492;9.214;2023-05-17T12:56:52;17.50;22.40
578;DHT22;275;48.492;9.214;2023-05-17T12:59:19;16.60;22.90
578;DHT22;275;48.492;9.214;2023-05-17T13:01:51;16.60;22.80
578;DHT22;275;48.492;9.214;2023-05-17T13:04:22;16.20;23.00
578;DHT22;275;48.492;9.214;2023-05-17T13:06:54;15.80;23.30
578;DHT22;275;48.492;9.214;2023-05-17T13:09:23;15.90;23.80
578;DHT22;275;48.492;9.214;2023-05-17T13:11:50;16.80;23.20
578;DHT22;275;48.492;9.214;2023-05-17T13:14:33;16.60;23.50
578;DHT22;275;48.492;9.214;2023-05-17T13:17:02;16.30;24.10
578;DHT22;275;48.492;9.214;2023-05-17T13:19:29;16.70;24.30
578;DHT22;275;48.492;9.214;2023-05-17T13:21:56;16.80;23.40
578;DHT22;275;48.492;9.214;2023-05-17T13:24:24;17.10;23.00
578;DHT22;275;48.492;9.214;2023-05-17T13:26:51;17.70;22.30
578;DHT22;275;48.492;9.214;2023-05-17T13:29:18;17.40;22.50
578;DHT22;275;48.492;9.214;2023-05-17T13:31:45;17.90;21.90
578;DHT22;275;48.492;9.214;2023-05-17T13:34:13;17.30;22.20
578;DHT22;275;48.492;9.214;2023-05-17T13:36:40;16.50;23.20
578;DHT22;275;48.492;9.214;2023-05-17T13:39:07;15.70;24.80
578;DHT22;275;48.492;9.214;2023-05-17T13:41:34;15.80;24.60
578;DHT22;275;48.492;9.214;2023-05-17T13:44:01;15.60;24.50
578;DHT22;275;48.492;9.214;2023-05-17T13:46:28;15.70;24.40
578;DHT22;275;48.492;9.214;2023-05-17T13:48:55;15.80;24.10
578;DHT22;275;48.492;9.214;2023-05-17T13:51:23;16.00;23.90
578;DHT22;275;48.492;9.214;2023-05-17T13:53:50;16.00;23.50
578;DHT22;275;48.492;9.214;2023-05-17T13:56:17;15.60;24.20
578;DHT22;275;48.492;9.214;2023-05-17T13:58:44;15.90;23.20
578;DHT22;275;48.492;9.214;2023-05-17T14:01:12;16.00;23.30
578;DHT22;275;48.492;9.214;2023-05-17T14:03:40;16.30;23.00
578;DHT22;275;48.492;9.214;2023-05-17T14:06:06;17.50;22.50
578;DHT22;275;48.492;9.214;2023-05-17T14:08:35;17.30;23.10
578;DHT22;275;48.492;9.214;2023-05-17T14:11:02;17.40;22.80
578;DHT22;275;48.492;9.214;2023-05-17T14:13:29;17.20;22.80
578;DHT22;275;48.492;9.214;2023-05-17T14:15:56;17.00;23.10
578;DHT22;275;48.492;9.214;2023-05-17T14:18:22;16.50;23.70
578;DHT22;275;48.492;9.214;2023-05-17T14:20:49;16.40;24.00
578;DHT22;275;48.492;9.214;2023-05-17T14:23:17;16.50;23.60
578;DHT22;275;48.492;9.214;2023-05-17T14:25:45;16.20;24.50
578;DHT22;275;48.492;9.214;2023-05-17T14:28:13;16.20;24.00
578;DHT22;275;48.492;9.214;2023-05-17T14:30:41;16.30;24.40
578;DHT22;275;48.492;9.214;2023-05-17T14:33:08;16.10;24.60
578;DHT22;275;48.492;9.214;2023-05-17T14:35:35;16.10;23.90
578;DHT22;275;48.492;9.214;2023-05-17T14:38:02;15.90;24.60
578;DHT22;275;48.492;9.214;2023-05-17T14:40:28;16.00;24.50
578;DHT22;275;48.492;9.214;2023-05-17T14:42:57;15.90;25.20
578;DHT22;275;48.492;9.214;2023-05-17T14:45:23;15.70;25.20
578;DHT22;275;48.492;9.214;2023-05-17T14:47:50;15.40;25.70
578;DHT22;275;48.492;9.214;2023-05-17T14:50:17;15.50;25.60
578;DHT22;275;48.492;9.214;2023-05-17T14:52:44;15.90;24.90
578;DHT22;275;48.492;9.214;2023-05-17T14:55:11;15.70;25.00
578;DHT22;275;48.492;9.214;2023-05-17T14:57:40;16.10;24.60
578;DHT22;275;48.492;9.214;2023-05-17T15:00:11;16.30;23.90
578;DHT22;275;48.492;9.214;2023-05-17T15:02:38;16.10;23.90
578;DHT22;275;48.492;9.214;2023-05-17T15:05:06;15.50;24.50
578;DHT22;275;48.492;9.214;2023-05-17T15:07:32;15.70;23.90
578;DHT22;275;48.492;9.214;2023-05-17T15:09:59;15.10;24.90
578;DHT22;275;48.492;9.214;2023-05-17T15:12:26;14.90;25.70
578;DHT22;275;48.492;9.214;2023-05-17T15:14:54;14.60;26.70
578;DHT22;275;48.492;9.214;2023-05-17T15:17:23;14.90;26.30
578;DHT22;275;48.492;9.214;2023-05-17T15:19:49;15.10;26.60
578;DHT22;275;48.492;9.214;2023-05-17T15:22:16;15.00;26.60
578;DHT22;275;48.492;9.214;2023-05-17T15:24:43;15.20;25.60
578;DHT22;275;48.492;9.214;2023-05-17T15:27:10;15.00;26.20
578;DHT22;275;48.492;9.214;2023-05-17T15:29:40;14.90;27.00
578;DHT22;275;48.492;9.214;2023-05-17T15:32:08;15.60;25.40
578;DHT22;275;48.492;9.214;2023-05-17T15:34:36;15.50;24.90
578;DHT22;275;48.492;9.214;2023-05-17T15:37:03;15.40;25.60
578;DHT22;275;48.492;9.214;2023-05-17T15:39:30;16.10;24.80
578;DHT22;275;48.492;9.214;2023-05-17T15:41:57;15.50;25.60
578;DHT22;275;48.492;9.214;2023-05-17T15:44:24;15.40;26.20
578;DHT22;275;48.492;9.214;2023-05-17T15:46:50;14.90;25.90
578;DHT22;275;48.492;9.214;2023-05-17T15:49:17;14.80;25.90
578;DHT22;275;48.492;9.214;2023-05-17T15:51:46;15.40;24.80
578;DHT22;275;48.492;9.214;2023-05-17T15:54:13;14.90;25.80
578;DHT22;275;48.492;9.214;2023-05-17T15:56:40;14.90;25.60
578;DHT22;275;48.492;9.214;2023-05-17T15:59:07;14.70;26.00
578;DHT22;275;48.492;9.214;2023-05-17T16:01:34;14.50;26.10
578;DHT22;275;48.492;9.214;2023-05-17T16:04:01;14.70;25.90
578;DHT22;275;48.492;9.214;2023-05-17T16:06:28;15.00;24.70
578;DHT22;275;48.492;9.214;2023-05-17T16:09:00;15.10;24.40
578;DHT22;275;48.492;9.214;2023-05-17T16:11:27;14.70;24.80
578;DHT22;275;48.492;9.214;2023-05-17T16:13:55;14.70;24.80
578;DHT22;275;48.492;9.214;2023-05-17T16:16:22;14.80;24.90
578;DHT22;275;48.492;9.214;2023-05-17T16:18:49;15.40;24.20
578;DHT22;275;48.492;9.214;2023-05-17T16:21:16;15.60;24.00
578;DHT22;275;48.492;9.214;2023-05-17T16:23:42;16.20;23.30
578;DHT22;275;48.492;9.214;2023-05-17T16:26:11;15.90;23.60
578;DHT22;275;48.492;9.214;2023-05-17T16:28:39;15.30;24.80
578;DHT22;275;48.492;9.214;2023-05-17T16:31:05;15.80;24.20
578;DHT22;275;48.492;9.214;2023-05-17T16:33:33;15.60;24.00
578;DHT22;275;48.492;9.214;2023-05-17T16:36:01;14.90;25.30
578;DHT22;275;48.492;9.214;2023-05-17T16:38:27;14.80;25.70
578;DHT22;275;48.492;9.214;2023-05-17T16:40:54;14.50;26.20